createdAt,value
2023-04-02T00:02:05.185Z,1.11
2023-04-02T00:04:31.616Z,0.96
2023-04-02T00:06:57.909Z,1.25
2023-04-02T00:09:24.205Z,1.11
2023-04-02T00:11:50.521Z,1.14
2023-04-02T00:14:16.838Z,1.20
2023-04-02T00:16:43.174Z,1.13
2023-04-02T00:19:09.571Z,1.17
2023-04-02T00:21:36.173Z,1.38
2023-04-02T00:24:03.199Z,1.06
2023-04-02T00:26:29.570Z,0.91
2023-04-02T00:28:55.879Z,0.88
2023-04-02T00:31:22.180Z,0.99
2023-04-02T00:33:48.498Z,0.92
2023-04-02T00:36:14.789Z,1.02
2023-04-02T00:38:41.215Z,1.16
2023-04-02T00:41:07.535Z,1.40
2023-04-02T00:43:33.817Z,1.21
2023-04-02T00:46:00.156Z,1.54
2023-04-02T00:48:26.487Z,1.30
2023-04-02T00:50:52.779Z,1.40
2023-04-02T00:53:19.084Z,1.69
2023-04-02T00:55:45.435Z,1.48
2023-04-02T00:58:11.847Z,1.48
2023-04-02T01:00:38.178Z,1.44
2023-04-02T01:03:04.689Z,1.45
2023-04-02T01:05:31.131Z,1.50
2023-04-02T01:07:57.440Z,1.45
2023-04-02T01:10:23.751Z,1.45
2023-04-02T01:12:50.110Z,1.47
2023-04-02T01:15:16.407Z,1.62
2023-04-02T01:17:43.049Z,1.59
2023-04-02T01:20:09.447Z,1.48
2023-04-02T01:22:35.747Z,2.15
2023-04-02T01:25:02.107Z,2.25
2023-04-02T01:27:28.473Z,2.16
2023-04-02T01:29:54.766Z,2.42
2023-04-02T01:32:21.131Z,2.50
2023-04-02T01:34:47.434Z,2.38
2023-04-02T01:37:13.739Z,2.48
2023-04-02T01:39:40.072Z,2.37
2023-04-02T01:42:06.368Z,1.84
2023-04-02T01:44:32.645Z,1.32
2023-04-02T01:46:58.937Z,1.16
2023-04-02T01:49:25.232Z,1.07
2023-04-02T01:51:51.522Z,1.08
2023-04-02T01:54:17.826Z,1.02
2023-04-02T01:56:44.128Z,1.07
2023-04-02T01:59:10.414Z,0.95
2023-04-02T02:01:36.717Z,0.78
2023-04-02T02:04:03.003Z,1.01
2023-04-02T02:06:29.291Z,0.89
2023-04-02T02:08:55.604Z,1.07
2023-04-02T02:11:21.900Z,1.48
2023-04-02T02:13:48.200Z,1.71
2023-04-02T02:16:14.594Z,1.85
2023-04-02T02:18:40.897Z,1.94
2023-04-02T02:21:07.179Z,2.05
2023-04-02T02:23:33.512Z,1.93
2023-04-02T02:25:59.854Z,2.45
2023-04-02T02:28:26.174Z,2.44
2023-04-02T02:30:52.520Z,2.18
2023-04-02T02:33:18.823Z,2.18
2023-04-02T02:35:45.177Z,1.88
2023-04-02T02:38:11.572Z,1.79
2023-04-02T02:40:37.865Z,1.64
2023-04-02T02:43:04.159Z,1.47
2023-04-02T02:45:30.477Z,1.79
2023-04-02T02:47:56.792Z,1.72
2023-04-02T02:50:23.130Z,1.67
2023-04-02T02:52:49.452Z,1.30
2023-04-02T02:55:15.752Z,1.13
2023-04-02T02:57:42.045Z,1.09
2023-04-02T03:00:08.386Z,1.19
2023-04-02T03:02:34.824Z,1.26
2023-04-02T03:05:01.176Z,1.08
2023-04-02T03:07:27.474Z,1.18
2023-04-02T03:09:53.776Z,1.64
2023-04-02T03:12:20.070Z,2.10
2023-04-02T03:14:46.394Z,2.16
2023-04-02T03:17:12.677Z,2.64
2023-04-02T03:19:38.972Z,3.39
2023-04-02T03:22:05.299Z,2.61
2023-04-02T03:24:31.597Z,1.64
2023-04-02T03:26:57.897Z,1.28
2023-04-02T03:29:24.234Z,2.18
2023-04-02T03:31:50.526Z,2.10
2023-04-02T03:34:16.817Z,1.14
2023-04-02T03:36:43.138Z,1.04
2023-04-02T03:39:09.430Z,1.23
2023-04-02T03:41:37.506Z,1.17
2023-04-02T03:44:03.859Z,1.12
2023-04-02T03:46:30.156Z,1.11
2023-04-02T03:48:56.508Z,1.30
2023-04-02T03:51:22.828Z,1.16
2023-04-02T03:53:49.115Z,1.13
2023-04-02T03:56:15.406Z,1.24
2023-04-02T03:58:41.728Z,1.19
2023-04-02T04:01:08.023Z,1.11
2023-04-02T04:03:34.316Z,1.30
2023-04-02T04:06:00.637Z,1.19
2023-04-02T04:08:26.947Z,1.09
2023-04-02T04:10:53.263Z,1.18
2023-04-02T04:13:19.631Z,1.29
2023-04-02T04:15:46.060Z,1.38
2023-04-02T04:18:12.379Z,1.32
2023-04-02T04:20:38.696Z,1.56
2023-04-02T04:23:04.998Z,1.52
2023-04-02T04:25:31.313Z,1.65
2023-04-02T04:27:57.639Z,1.79
2023-04-02T04:30:23.938Z,2.18
2023-04-02T04:32:50.318Z,2.72
2023-04-02T04:35:16.717Z,2.72
2023-04-02T04:37:43.392Z,2.33
2023-04-02T04:40:09.753Z,1.83
2023-04-02T04:42:36.075Z,1.83
2023-04-02T04:45:02.382Z,1.37
2023-04-02T04:47:28.706Z,1.33
2023-04-02T04:49:55.087Z,1.28
2023-04-02T04:52:21.381Z,1.45
2023-04-02T04:54:47.671Z,1.21
2023-04-02T04:57:14.039Z,1.16
2023-04-02T04:59:40.350Z,1.39
2023-04-02T05:02:06.656Z,1.39
2023-04-02T05:04:33.007Z,1.37
2023-04-02T05:06:59.332Z,1.35
2023-04-02T05:09:25.637Z,1.42
2023-04-02T05:11:51.951Z,1.55
2023-04-02T05:14:18.249Z,1.50
2023-04-02T05:16:44.529Z,1.71
2023-04-02T05:19:10.851Z,1.81
2023-04-02T05:21:37.151Z,1.91
2023-04-02T05:24:03.453Z,2.00
2023-04-02T05:26:29.773Z,2.35
2023-04-02T05:28:56.099Z,2.49
2023-04-02T05:31:22.445Z,2.41
2023-04-02T05:33:48.853Z,2.27
2023-04-02T05:36:15.168Z,2.35
2023-04-02T05:38:41.481Z,2.24
2023-04-02T05:41:07.804Z,2.21
2023-04-02T05:43:34.093Z,2.29
2023-04-02T05:46:00.391Z,2.22
2023-04-02T05:48:26.719Z,2.20
2023-04-02T05:50:53.011Z,2.25
2023-04-02T05:53:19.310Z,1.98
2023-04-02T05:55:45.676Z,1.88
2023-04-02T05:58:33.711Z,1.65
2023-04-02T06:00:58.258Z,1.66
2023-04-02T06:03:24.639Z,1.50
2023-04-02T06:05:51.140Z,1.35
2023-04-02T06:08:17.466Z,1.50
2023-04-02T06:10:43.765Z,1.73
2023-04-02T06:13:10.061Z,1.92
2023-04-02T06:15:36.670Z,1.79
2023-04-02T06:18:03.189Z,1.72
2023-04-02T06:20:29.615Z,1.65
2023-04-02T06:22:55.945Z,1.73
2023-04-02T06:25:22.254Z,1.97
2023-04-02T06:27:48.588Z,1.88
2023-04-02T06:30:14.907Z,1.77
2023-04-02T06:32:41.228Z,1.64
2023-04-02T06:35:07.527Z,1.96
2023-04-02T06:37:33.829Z,2.42
2023-04-02T06:40:00.119Z,2.02
2023-04-02T06:42:26.419Z,2.05
2023-04-02T06:44:52.742Z,1.83
2023-04-02T06:47:19.039Z,1.93
2023-04-02T06:49:45.349Z,2.00
2023-04-02T06:52:11.685Z,1.99
2023-04-02T06:54:37.989Z,2.28
2023-04-02T06:57:04.328Z,2.07
2023-04-02T06:59:30.715Z,2.15
2023-04-02T07:01:57.043Z,2.08
2023-04-02T07:04:23.364Z,2.48
2023-04-02T07:06:49.701Z,2.62
2023-04-02T07:09:15.996Z,2.38
2023-04-02T07:11:42.282Z,2.23
2023-04-02T07:14:08.590Z,2.27
2023-04-02T07:16:34.892Z,2.20
2023-04-02T07:19:01.228Z,2.27
2023-04-02T07:21:27.546Z,2.65
2023-04-02T07:23:53.882Z,2.45
2023-04-02T07:26:20.174Z,2.70
2023-04-02T07:28:46.491Z,2.67
2023-04-02T07:31:12.890Z,2.74
2023-04-02T07:33:40.115Z,2.81
2023-04-02T07:36:08.139Z,3.07
2023-04-02T07:38:34.454Z,2.78
2023-04-02T07:41:00.760Z,2.86
2023-04-02T07:43:27.092Z,3.09
2023-04-02T07:45:53.388Z,3.32
2023-04-02T07:48:19.679Z,3.25
2023-04-02T07:50:46.002Z,3.55
2023-04-02T07:53:12.303Z,3.24
2023-04-02T07:55:38.609Z,3.31
2023-04-02T07:58:04.941Z,3.66
2023-04-02T08:00:31.296Z,3.39
2023-04-02T08:02:57.680Z,3.08
2023-04-02T08:05:24.059Z,3.43
2023-04-02T08:07:50.340Z,3.45
2023-04-02T08:10:16.658Z,3.03
2023-04-02T08:12:42.983Z,3.16
2023-04-02T08:15:09.284Z,3.08
2023-04-02T08:17:35.648Z,3.26
2023-04-02T08:20:02.049Z,3.18
2023-04-02T08:22:28.371Z,3.34
2023-04-02T08:24:54.663Z,3.62
2023-04-02T08:27:20.970Z,3.44
2023-04-02T08:29:47.268Z,3.20
2023-04-02T08:32:13.554Z,3.11
2023-04-02T08:34:39.864Z,2.71
2023-04-02T08:37:06.158Z,2.80
2023-04-02T08:39:32.470Z,2.60
2023-04-02T08:41:58.773Z,2.55
2023-04-02T08:44:25.072Z,2.74
2023-04-02T08:46:51.385Z,2.62
2023-04-02T08:49:17.709Z,2.52
2023-04-02T08:51:44.020Z,2.71
2023-04-02T08:54:10.312Z,2.38
2023-04-02T08:56:36.631Z,2.35
2023-04-02T08:59:02.915Z,2.42
2023-04-02T09:01:29.250Z,2.34
2023-04-02T09:03:55.623Z,2.26
2023-04-02T09:06:21.918Z,2.48
2023-04-02T09:08:48.232Z,2.13
2023-04-02T09:11:14.581Z,2.18
2023-04-02T09:13:40.866Z,2.07
2023-04-02T09:16:07.220Z,2.63
2023-04-02T09:18:33.640Z,2.56
2023-04-02T09:20:59.934Z,2.51
2023-04-02T09:23:26.285Z,2.53
2023-04-02T09:26:03.499Z,2.69
2023-04-02T09:28:31.031Z,2.71
2023-04-02T09:30:57.352Z,2.25
2023-04-02T09:33:23.649Z,2.26
2023-04-02T09:35:50.026Z,2.27
2023-04-02T09:38:16.396Z,2.17
2023-04-02T09:40:42.744Z,2.11
2023-04-02T09:43:09.044Z,2.10
2023-04-02T09:45:35.531Z,2.30
2023-04-02T09:48:01.956Z,2.07
2023-04-02T09:50:28.344Z,2.39
2023-04-02T09:52:54.648Z,2.17
2023-04-02T09:55:20.942Z,2.12
2023-04-02T09:57:47.251Z,2.23
2023-04-02T10:00:25.243Z,2.01
2023-04-02T10:02:56.661Z,2.13
2023-04-02T10:05:39.495Z,2.09
2023-04-02T10:08:07.123Z,2.11
2023-04-02T10:10:33.685Z,1.64
2023-04-02T10:13:00.167Z,1.81
2023-04-02T10:15:26.478Z,1.82
2023-04-02T10:17:52.912Z,1.76
2023-04-02T10:20:19.214Z,1.86
2023-04-02T10:22:45.509Z,1.78
2023-04-02T10:25:11.845Z,1.51
2023-04-02T10:27:38.162Z,1.50
2023-04-02T10:30:04.486Z,1.69
2023-04-02T10:32:30.846Z,1.51
2023-04-02T10:34:57.196Z,1.33
2023-04-02T10:37:23.483Z,1.43
2023-04-02T10:39:49.806Z,1.77
2023-04-02T10:42:16.091Z,1.48
2023-04-02T10:44:42.384Z,1.28
2023-04-02T10:47:08.746Z,1.41
2023-04-02T10:49:35.100Z,1.54
2023-04-02T10:52:01.458Z,1.49
2023-04-02T10:54:27.958Z,1.57
2023-04-02T10:56:54.365Z,1.66
2023-04-02T10:59:20.699Z,1.58
2023-04-02T11:01:47.054Z,1.79
2023-04-02T11:04:14.276Z,1.70
2023-04-02T11:06:40.641Z,1.73
2023-04-02T11:09:06.968Z,1.53
2023-04-02T11:11:33.264Z,1.53
2023-04-02T11:13:59.571Z,1.18
2023-04-02T11:16:25.909Z,1.10
2023-04-02T11:18:52.216Z,0.91
2023-04-02T11:21:18.531Z,0.77
2023-04-02T11:23:44.892Z,0.88
2023-04-02T11:26:11.179Z,0.90
2023-04-02T11:28:37.468Z,1.11
2023-04-02T11:31:03.827Z,0.94
2023-04-02T11:33:36.596Z,0.87
2023-04-02T11:36:04.906Z,0.82
2023-04-02T11:38:31.251Z,0.91
2023-04-02T11:40:57.549Z,0.54
2023-04-02T11:43:23.866Z,0.61
2023-04-02T11:45:53.360Z,0.71
2023-04-02T11:48:20.074Z,0.70
2023-04-02T11:50:46.713Z,0.47
2023-04-02T11:53:13.209Z,0.55
2023-04-02T11:55:39.700Z,0.33
2023-04-02T11:58:06.286Z,0.33
2023-04-02T12:00:32.599Z,0.35
2023-04-02T12:02:58.953Z,0.41
2023-04-02T12:05:25.361Z,0.45
2023-04-02T12:07:51.708Z,0.34
2023-04-02T12:10:18.088Z,0.22
2023-04-02T12:12:44.423Z,0.30
2023-04-02T12:15:10.721Z,0.30
2023-04-02T12:17:37.062Z,0.61
2023-04-02T12:20:05.590Z,0.72
2023-04-02T12:22:32.249Z,0.70
2023-04-02T12:24:58.579Z,0.74
2023-04-02T12:27:24.945Z,0.84
2023-04-02T12:29:51.253Z,0.62
2023-04-02T12:32:17.562Z,0.61
2023-04-02T12:34:43.877Z,0.73
2023-04-02T12:37:10.180Z,0.58
2023-04-02T12:39:36.474Z,0.56
2023-04-02T12:42:02.784Z,0.52
2023-04-02T12:44:29.085Z,0.59
2023-04-02T12:46:55.385Z,0.75
2023-04-02T12:49:21.702Z,1.07
2023-04-02T12:51:48.003Z,1.42
2023-04-02T12:54:14.305Z,1.56
2023-04-02T12:56:40.632Z,1.74
2023-04-02T12:59:06.954Z,1.90
2023-04-02T13:01:33.305Z,1.69
2023-04-02T13:03:59.693Z,1.53
2023-04-02T13:06:26.061Z,1.40
2023-04-02T13:08:52.418Z,1.12
2023-04-02T13:11:18.733Z,0.87
2023-04-02T13:13:45.033Z,0.58
2023-04-02T13:16:11.347Z,0.53
2023-04-02T13:18:37.703Z,0.46
2023-04-02T13:21:04.023Z,0.55
2023-04-02T13:23:30.345Z,0.65
2023-04-02T13:25:56.679Z,0.82
2023-04-02T13:28:22.990Z,0.97
2023-04-02T13:30:49.284Z,1.33
2023-04-02T13:33:15.624Z,1.01
2023-04-02T13:35:42.040Z,1.30
2023-04-02T13:38:08.372Z,1.05
2023-04-02T13:40:34.938Z,1.10
2023-04-02T13:43:01.346Z,1.07
2023-04-02T13:45:27.701Z,1.03
2023-04-02T13:47:54.094Z,0.90
2023-04-02T13:50:20.454Z,0.94
2023-04-02T13:52:46.750Z,1.08
2023-04-02T13:55:13.079Z,1.36
2023-04-02T13:57:39.439Z,1.56
2023-04-02T14:00:05.821Z,1.42
2023-04-02T14:02:32.168Z,1.57
2023-04-02T14:04:58.470Z,1.77
2023-04-02T14:07:24.757Z,1.60
2023-04-02T14:09:51.100Z,1.48
2023-04-02T14:12:17.401Z,1.21
2023-04-02T14:14:43.720Z,1.09
2023-04-02T14:17:10.064Z,3.96
2023-04-02T14:19:36.350Z,3.75
2023-04-02T14:22:02.652Z,1.78
2023-04-02T14:24:28.969Z,1.86
2023-04-02T14:26:55.270Z,1.69
2023-04-02T14:29:21.563Z,1.71
2023-04-02T14:31:47.878Z,1.43
2023-04-02T14:34:14.198Z,1.60
2023-04-02T14:36:40.496Z,1.27
2023-04-02T14:39:06.844Z,1.21
2023-04-02T14:41:33.135Z,1.01
2023-04-02T14:43:59.435Z,1.02
2023-04-02T14:46:25.758Z,1.02
2023-04-02T14:48:52.143Z,0.88
2023-04-02T14:51:18.425Z,0.78
2023-04-02T14:53:44.769Z,0.68
2023-04-02T14:56:11.081Z,0.89
2023-04-02T14:58:37.383Z,0.68
2023-04-02T15:01:03.684Z,0.71
2023-04-02T15:03:30.059Z,0.51
2023-04-02T15:05:56.450Z,0.64
2023-04-02T15:08:22.769Z,0.62
2023-04-02T15:10:49.078Z,0.71
2023-04-02T15:13:15.379Z,0.77
2023-04-02T15:15:41.697Z,0.68
2023-04-02T15:18:08.256Z,0.70
2023-04-02T15:20:34.728Z,0.64
2023-04-02T15:23:01.223Z,0.65
2023-04-02T15:25:27.514Z,0.80
2023-04-02T15:27:53.801Z,1.00
2023-04-02T15:30:20.154Z,0.96
2023-04-02T15:32:46.451Z,1.07
2023-04-02T15:35:12.806Z,1.15
2023-04-02T15:37:39.117Z,1.12
2023-04-02T15:40:05.414Z,1.01
2023-04-02T15:42:31.710Z,0.81
2023-04-02T15:44:58.094Z,0.90
2023-04-02T15:47:24.399Z,0.82
2023-04-02T15:49:50.725Z,1.19
2023-04-02T15:52:17.043Z,1.09
2023-04-02T15:54:43.337Z,0.98
2023-04-02T15:57:09.679Z,1.02
2023-04-02T15:59:36.023Z,1.12
2023-04-02T16:02:02.351Z,1.19
2023-04-02T16:04:28.690Z,1.19
2023-04-02T16:06:55.033Z,0.99
2023-04-02T16:09:21.333Z,1.39
2023-04-02T16:11:47.630Z,1.29
2023-04-02T16:14:13.943Z,1.17
2023-04-02T16:16:40.353Z,1.21
2023-04-02T16:19:16.130Z,1.33
2023-04-02T16:21:43.208Z,4.50
2023-04-02T16:24:10.618Z,2.58
2023-04-02T16:26:36.910Z,1.72
2023-04-02T16:29:03.228Z,1.46
2023-04-02T16:31:29.624Z,1.33
2023-04-02T16:34:00.882Z,1.56
2023-04-02T16:36:27.235Z,1.88
2023-04-02T16:38:53.589Z,1.94
2023-04-02T16:41:19.896Z,2.04
2023-04-02T16:43:46.225Z,2.07
2023-04-02T16:46:12.571Z,2.59
2023-04-02T16:48:38.872Z,2.42
2023-04-02T16:51:05.303Z,2.19
2023-04-02T16:53:31.637Z,2.39
2023-04-02T16:55:57.956Z,2.52
2023-04-02T16:58:24.390Z,2.51
2023-04-02T17:00:50.687Z,2.14
2023-04-02T17:03:17.048Z,1.89
2023-04-02T17:05:43.480Z,1.90
2023-04-02T17:08:09.781Z,1.88
2023-04-02T17:10:36.240Z,1.79
2023-04-02T17:13:02.749Z,1.50
2023-04-02T17:15:29.048Z,1.78
2023-04-02T17:17:55.376Z,1.72
2023-04-02T17:20:21.728Z,1.73
2023-04-02T17:22:48.030Z,1.55
2023-04-02T17:25:14.323Z,1.35
2023-04-02T17:27:40.648Z,1.13
2023-04-02T17:30:06.948Z,1.57
2023-04-02T17:32:33.387Z,1.61
2023-04-02T17:34:59.878Z,1.78
2023-04-02T17:37:26.224Z,2.10
2023-04-02T17:39:52.561Z,1.56
2023-04-02T17:42:18.887Z,1.44
2023-04-02T17:44:45.184Z,1.54
2023-04-02T17:47:11.486Z,1.70
2023-04-02T17:49:37.798Z,1.62
2023-04-02T17:52:04.100Z,1.57
2023-04-02T17:54:30.392Z,1.50
2023-04-02T17:56:57.290Z,1.57
2023-04-02T17:59:23.648Z,1.60
2023-04-02T18:01:50.023Z,1.58
2023-04-02T18:04:16.435Z,1.70
2023-04-02T18:06:42.739Z,1.50
2023-04-02T18:09:09.061Z,1.46
2023-04-02T18:11:35.413Z,1.50
2023-04-02T18:14:01.731Z,1.93
2023-04-02T18:16:28.075Z,2.28
2023-04-02T18:18:54.428Z,2.36
2023-04-02T18:21:20.728Z,2.65
2023-04-02T18:23:47.018Z,1.93
2023-04-02T18:26:13.347Z,1.92
2023-04-02T18:28:39.692Z,1.74
2023-04-02T18:31:06.045Z,2.19
2023-04-02T18:33:32.434Z,2.35
2023-04-02T18:35:58.993Z,2.70
2023-04-02T18:38:25.606Z,3.30
2023-04-02T18:40:53.389Z,2.66
2023-04-02T18:43:19.675Z,1.96
2023-04-02T18:45:46.075Z,2.00
2023-04-02T18:48:12.486Z,2.30
2023-04-02T18:50:39.196Z,2.55
2023-04-02T18:53:05.676Z,2.40
2023-04-02T18:55:32.016Z,2.40
2023-04-02T18:57:58.330Z,2.78
2023-04-02T19:00:24.648Z,3.28
2023-04-02T19:02:51.121Z,3.00
2023-04-02T19:05:17.468Z,2.81
2023-04-02T19:07:43.770Z,3.03
2023-04-02T19:10:10.100Z,2.51
2023-04-02T19:12:36.399Z,2.43
2023-04-02T19:15:02.699Z,2.26
2023-04-02T19:17:29.063Z,2.80
2023-04-02T19:19:55.372Z,2.20
2023-04-02T19:22:21.725Z,2.54
2023-04-02T19:24:48.043Z,2.43
2023-04-02T19:27:14.326Z,2.66
2023-04-02T19:29:40.629Z,2.65
2023-04-02T19:32:06.946Z,2.47
2023-04-02T19:34:33.256Z,1.67
2023-04-02T19:36:59.553Z,1.25
2023-04-02T19:39:25.879Z,1.40
2023-04-02T19:41:52.248Z,1.66
2023-04-02T19:44:18.557Z,1.84
2023-04-02T19:46:44.922Z,1.72
2023-04-02T19:49:11.238Z,1.63
2023-04-02T19:51:37.536Z,2.19
2023-04-02T19:54:03.870Z,2.30
2023-04-02T19:56:30.154Z,2.24
2023-04-02T19:58:56.818Z,2.66
2023-04-02T20:01:24.541Z,2.30
2023-04-02T20:03:50.874Z,2.00
2023-04-02T20:06:17.176Z,1.87
2023-04-02T20:08:43.538Z,1.78
2023-04-02T20:11:09.825Z,1.64
2023-04-02T20:13:36.138Z,1.64
2023-04-02T20:16:02.493Z,1.95
2023-04-02T20:18:28.804Z,2.13
2023-04-02T20:20:55.103Z,1.63
2023-04-02T20:23:21.426Z,1.55
2023-04-02T20:25:47.718Z,1.63
2023-04-02T20:28:14.154Z,1.46
2023-04-02T20:30:40.470Z,1.46
2023-04-02T20:33:06.918Z,1.57
2023-04-02T20:35:33.306Z,1.82
2023-04-02T20:37:59.659Z,1.60
2023-04-02T20:40:25.950Z,1.62
2023-04-02T20:42:52.237Z,1.88
2023-04-02T20:45:18.546Z,1.87
2023-04-02T20:47:44.897Z,1.63
2023-04-02T20:50:11.214Z,1.75
2023-04-02T20:52:37.525Z,1.94
2023-04-02T20:55:03.822Z,1.58
2023-04-02T20:57:30.197Z,1.51
2023-04-02T20:59:56.528Z,1.53
2023-04-02T21:02:22.832Z,1.46
2023-04-02T21:04:49.150Z,1.32
2023-04-02T21:07:15.515Z,1.36
2023-04-02T21:09:41.815Z,1.42
2023-04-02T21:12:08.124Z,1.48
2023-04-02T21:14:34.488Z,1.41
2023-04-02T21:17:00.786Z,1.38
2023-04-02T21:19:27.081Z,1.33
2023-04-02T21:21:53.423Z,1.41
2023-04-02T21:24:19.739Z,1.26
2023-04-02T21:26:46.042Z,1.30
2023-04-02T21:29:12.382Z,1.18
2023-04-02T21:31:38.768Z,1.13
2023-04-02T21:34:05.117Z,1.06
2023-04-02T21:36:31.460Z,1.12
2023-04-02T21:38:57.765Z,1.12
2023-04-02T21:41:24.142Z,1.08
2023-04-02T21:43:50.474Z,1.29
2023-04-02T21:46:16.829Z,1.27
2023-04-02T21:48:43.127Z,1.21
2023-04-02T21:51:09.453Z,1.13
2023-04-02T21:53:35.773Z,1.08
2023-04-02T21:56:02.088Z,1.42
2023-04-02T21:58:28.444Z,1.73
2023-04-02T22:00:54.780Z,1.75
2023-04-02T22:03:31.024Z,1.49
2023-04-02T22:06:06.521Z,1.45
2023-04-02T22:08:32.829Z,1.50
2023-04-02T22:10:59.165Z,1.40
2023-04-02T22:13:25.475Z,1.28
2023-04-02T22:15:51.762Z,1.57
2023-04-02T22:18:18.116Z,1.63
2023-04-02T22:20:44.403Z,1.64
2023-04-02T22:23:10.695Z,1.57
2023-04-02T22:25:37.015Z,1.50
2023-04-02T22:28:03.306Z,1.62
2023-04-02T22:30:29.600Z,1.77
2023-04-02T22:32:55.963Z,1.78
2023-04-02T22:35:22.298Z,1.87
2023-04-02T22:37:48.592Z,2.08
2023-04-02T22:40:14.919Z,1.96
2023-04-02T22:42:41.209Z,1.89
2023-04-02T22:45:07.508Z,1.83
2023-04-02T22:47:33.876Z,2.08
2023-04-02T22:50:00.191Z,2.94
2023-04-02T22:52:26.476Z,3.22
2023-04-02T22:54:52.803Z,3.38
2023-04-02T22:57:19.149Z,3.54
2023-04-02T22:59:45.495Z,3.73
2023-04-02T23:02:11.825Z,3.78
2023-04-02T23:04:38.164Z,3.78
2023-04-02T23:07:04.534Z,3.35
2023-04-02T23:09:30.846Z,3.56
2023-04-02T23:11:57.156Z,3.59
2023-04-02T23:14:23.446Z,3.76
2023-04-02T23:16:49.800Z,3.68
2023-04-02T23:19:16.087Z,3.65
2023-04-02T23:21:42.374Z,3.53
2023-04-02T23:24:08.727Z,3.60
2023-04-02T23:26:35.022Z,3.44
2023-04-02T23:29:01.315Z,3.25
2023-04-02T23:31:27.876Z,3.08
2023-04-02T23:33:54.229Z,3.08
2023-04-02T23:36:20.645Z,2.58
2023-04-02T23:38:47.008Z,2.56
2023-04-02T23:41:13.300Z,2.44
2023-04-02T23:43:39.585Z,2.39
2023-04-02T23:46:05.897Z,2.42
2023-04-02T23:48:32.176Z,2.15
2023-04-02T23:50:58.467Z,2.22
2023-04-02T23:53:24.792Z,2.29
2023-04-02T23:55:51.088Z,2.18
2023-04-02T23:58:17.379Z,2.02
